createdAt,value
2022-08-14T00:02:31.274Z,3.15
2022-08-14T00:05:00.950Z,3.33
2022-08-14T00:07:29.949Z,3.50
2022-08-14T00:10:49.207Z,3.60
2022-08-14T00:12:56.760Z,3.30
2022-08-14T00:15:37.718Z,3.15
2022-08-14T00:18:30.530Z,3.25
2022-08-14T00:21:10.802Z,3.15
2022-08-14T00:23:41.429Z,3.55
2022-08-14T00:26:22.054Z,3.70
2022-08-14T00:28:52.667Z,3.63
2022-08-14T00:31:34.832Z,3.90
2022-08-14T00:34:37.870Z,3.45
2022-08-14T00:37:01.921Z,3.80
2022-08-14T00:39:31.838Z,4.00
2022-08-14T00:42:02.212Z,4.18
2022-08-14T00:44:33.291Z,4.18
2022-08-14T00:47:03.870Z,4.28
2022-08-14T00:49:38.065Z,4.47
2022-08-14T00:52:17.781Z,4.13
2022-08-14T00:54:52.909Z,4.18
2022-08-14T00:57:33.582Z,4.60
2022-08-14T01:00:08.379Z,3.90
2022-08-14T01:02:57.001Z,4.10
2022-08-14T01:05:41.830Z,4.78
2022-08-14T01:08:58.296Z,4.38
2022-08-14T01:11:10.588Z,4.28
2022-08-14T01:13:43.072Z,5.20
2022-08-14T01:16:15.102Z,4.20
2022-08-14T01:19:02.512Z,3.90
2022-08-14T01:21:38.756Z,4.40
2022-08-14T01:24:24.743Z,4.10
2022-08-14T01:27:01.600Z,4.15
2022-08-14T01:29:58.176Z,4.80
2022-08-14T01:32:23.091Z,4.57
2022-08-14T01:35:18.445Z,5.05
2022-08-14T01:37:56.543Z,5.10
2022-08-14T01:40:36.892Z,4.80
2022-08-14T01:43:18.608Z,5.38
2022-08-14T01:45:57.818Z,4.90
2022-08-14T01:48:36.978Z,4.53
2022-08-14T01:51:18.972Z,4.65
2022-08-14T01:53:55.049Z,4.85
2022-08-14T01:56:37.399Z,4.70
2022-08-14T01:59:10.226Z,4.75
2022-08-14T02:01:58.209Z,4.25
2022-08-14T02:04:54.988Z,5.22
2022-08-14T02:07:27.212Z,5.00
2022-08-14T02:10:15.870Z,5.30
2022-08-14T02:12:54.054Z,5.18
2022-08-14T02:15:26.568Z,5.25
2022-08-14T02:17:55.334Z,5.40
2022-08-14T02:20:24.824Z,5.88
2022-08-14T02:22:54.706Z,6.15
2022-08-14T02:25:29.869Z,6.57
2022-08-14T02:28:24.523Z,5.53
2022-08-14T02:30:52.411Z,4.93
2022-08-14T02:33:23.312Z,5.30
2022-08-14T02:36:05.097Z,5.95
2022-08-14T02:38:42.089Z,6.25
2022-08-14T02:41:15.240Z,6.15
2022-08-14T02:43:46.464Z,5.47
2022-08-14T02:46:20.436Z,5.28
2022-08-14T02:49:04.033Z,5.10
2022-08-14T02:51:36.960Z,5.75
2022-08-14T02:54:07.171Z,5.85
2022-08-14T02:57:39.203Z,5.50
2022-08-14T02:59:33.736Z,5.82
2022-08-14T03:02:04.677Z,6.22
2022-08-14T03:04:34.606Z,6.50
2022-08-14T03:07:07.903Z,6.20
2022-08-14T03:10:26.251Z,6.18
2022-08-14T03:12:32.358Z,5.60
2022-08-14T03:15:14.195Z,5.60
2022-08-14T03:17:56.863Z,6.03
2022-08-14T03:20:28.295Z,5.55
2022-08-14T03:23:03.348Z,5.40
2022-08-14T03:25:34.194Z,5.90
2022-08-14T03:28:14.697Z,5.63
2022-08-14T03:31:00.195Z,5.88
2022-08-14T03:33:38.035Z,5.68
2022-08-14T03:37:52.101Z,5.88
2022-08-14T03:39:15.269Z,6.30
2022-08-14T03:41:53.754Z,6.35
2022-08-14T03:45:26.800Z,6.60
2022-08-14T03:47:15.333Z,6.25
2022-08-14T03:49:50.079Z,6.60
2022-08-14T03:52:39.142Z,6.70
2022-08-14T03:55:09.911Z,6.95
2022-08-14T03:57:41.648Z,7.07
2022-08-14T04:00:40.534Z,6.50
2022-08-14T04:03:06.506Z,6.97
2022-08-14T04:05:42.833Z,7.95
2022-08-14T04:08:29.710Z,7.43
2022-08-14T04:11:00.968Z,6.60
2022-08-14T04:13:33.814Z,6.38
2022-08-14T04:16:06.981Z,6.35
2022-08-14T04:18:43.889Z,6.70
2022-08-14T04:21:14.920Z,6.47
2022-08-14T04:23:48.994Z,6.70
2022-08-14T04:26:42.579Z,6.90
2022-08-14T04:29:16.145Z,7.10
2022-08-14T04:33:01.502Z,6.72
2022-08-14T04:34:41.969Z,6.55
2022-08-14T04:37:28.635Z,7.13
2022-08-14T04:40:15.250Z,6.55
2022-08-14T04:43:03.002Z,7.63
2022-08-14T04:45:40.632Z,6.60
2022-08-14T04:48:31.623Z,6.93
2022-08-14T04:51:07.824Z,6.95
2022-08-14T04:53:42.975Z,6.57
2022-08-14T04:56:31.119Z,7.55
2022-08-14T04:59:10.005Z,7.35
2022-08-14T05:01:44.811Z,7.30
2022-08-14T05:04:20.792Z,7.20
2022-08-14T05:06:54.148Z,8.00
2022-08-14T05:09:28.798Z,7.35
2022-08-14T05:12:04.218Z,7.68
2022-08-14T05:14:54.771Z,7.28
2022-08-14T05:17:32.157Z,7.68
2022-08-14T05:21:58.349Z,8.57
2022-08-14T05:23:04.125Z,7.60
2022-08-14T05:25:33.710Z,7.65
2022-08-14T05:28:12.457Z,7.70
2022-08-14T05:30:47.008Z,8.02
2022-08-14T05:33:16.235Z,7.88
2022-08-14T05:35:48.451Z,8.00
2022-08-14T05:38:30.870Z,8.88
2022-08-14T05:41:02.356Z,7.88
2022-08-14T05:43:41.365Z,8.73
2022-08-14T05:46:15.247Z,8.82
2022-08-14T05:48:45.397Z,9.07
2022-08-14T05:51:15.767Z,9.93
2022-08-14T05:54:00.337Z,9.77
2022-08-14T05:56:37.152Z,10.07
2022-08-14T05:59:05.863Z,8.63
2022-08-14T06:01:36.738Z,10.45
2022-08-14T06:04:05.780Z,11.00
2022-08-14T06:06:38.465Z,10.70
2022-08-14T06:09:09.876Z,10.50
2022-08-14T06:11:39.031Z,10.77
2022-08-14T06:14:20.965Z,11.38
2022-08-14T06:16:53.471Z,9.70
2022-08-14T06:19:23.477Z,9.93
2022-08-14T06:21:59.217Z,9.80
2022-08-14T06:24:30.682Z,10.02
2022-08-14T06:27:06.418Z,9.43
2022-08-14T06:29:40.500Z,9.15
2022-08-14T06:32:38.010Z,9.73
2022-08-14T06:35:02.762Z,9.10
2022-08-14T06:37:43.843Z,8.85
2022-08-14T06:40:16.612Z,8.48
2022-08-14T06:42:57.164Z,8.38
2022-08-14T06:45:30.319Z,8.68
2022-08-14T06:47:59.187Z,9.63
2022-08-14T06:50:30.415Z,9.57
2022-08-14T06:53:00.512Z,9.48
2022-08-14T06:55:29.654Z,7.82
2022-08-14T06:57:58.366Z,7.10
2022-08-14T07:00:30.469Z,7.50
2022-08-14T07:03:19.209Z,7.20
2022-08-14T07:05:55.819Z,7.82
2022-08-14T07:08:32.112Z,7.50
2022-08-14T07:11:04.333Z,8.52
2022-08-14T07:13:34.630Z,7.88
2022-08-14T07:16:05.899Z,7.40
2022-08-14T07:18:37.143Z,6.85
2022-08-14T07:21:10.238Z,7.22
2022-08-14T07:23:44.107Z,7.00
2022-08-14T07:26:13.586Z,6.70
2022-08-14T07:28:44.170Z,5.53
2022-08-14T07:31:13.892Z,6.03
2022-08-14T07:33:50.814Z,6.15
2022-08-14T07:36:26.942Z,5.72
2022-08-14T07:39:00.960Z,4.75
2022-08-14T07:41:35.593Z,5.15
2022-08-14T07:44:32.935Z,4.68
2022-08-14T07:46:54.733Z,5.15
2022-08-14T07:49:24.477Z,4.45
2022-08-14T07:51:54.100Z,4.82
2022-08-14T07:54:29.976Z,4.40
2022-08-14T07:57:00.757Z,3.92
2022-08-14T07:59:42.305Z,4.53
2022-08-14T08:02:19.116Z,4.85
2022-08-14T08:04:54.205Z,4.40
2022-08-14T08:07:24.066Z,4.78
2022-08-14T08:09:57.816Z,4.82
2022-08-14T08:12:30.854Z,4.15
2022-08-14T08:15:07.335Z,3.85
2022-08-14T08:17:42.524Z,4.07
2022-08-14T08:20:27.396Z,4.25
2022-08-14T08:23:00.459Z,4.03
2022-08-14T08:25:39.813Z,3.78
2022-08-14T08:28:22.145Z,4.05
2022-08-14T08:30:56.704Z,3.85
2022-08-14T08:33:32.262Z,3.97
2022-08-14T08:36:13.043Z,3.70
2022-08-14T08:39:17.145Z,3.80
2022-08-14T08:41:45.488Z,4.03
2022-08-14T08:44:33.078Z,3.47
2022-08-14T08:47:06.126Z,3.45
2022-08-14T08:49:52.905Z,3.63
2022-08-14T08:52:31.553Z,3.50
2022-08-14T08:55:04.710Z,3.80
2022-08-14T08:57:37.946Z,2.97
2022-08-14T09:00:25.230Z,3.50
2022-08-14T09:02:57.615Z,3.53
2022-08-14T09:05:27.357Z,3.53
2022-08-14T09:07:56.825Z,3.80
2022-08-14T09:10:27.236Z,3.42
2022-08-14T09:12:58.814Z,3.13
2022-08-14T09:15:36.817Z,3.10
2022-08-14T09:18:14.012Z,3.20
2022-08-14T09:20:49.869Z,3.30
2022-08-14T09:23:20.353Z,3.20
2022-08-14T09:26:05.003Z,2.92
2022-08-14T09:28:51.319Z,3.30
2022-08-14T09:31:20.250Z,3.35
2022-08-14T09:34:19.691Z,3.20
2022-08-14T09:37:00.253Z,3.40
2022-08-14T09:39:47.826Z,3.60
2022-08-14T09:42:33.273Z,3.33
2022-08-14T09:45:15.565Z,2.95
2022-08-14T09:47:49.094Z,3.13
2022-08-14T09:50:26.011Z,3.35
2022-08-14T09:53:03.733Z,3.25
2022-08-14T09:55:42.413Z,3.13
2022-08-14T09:58:19.301Z,3.42
2022-08-14T10:00:52.776Z,2.80
2022-08-14T10:03:33.400Z,2.80
2022-08-14T10:06:08.792Z,3.13
2022-08-14T10:08:50.713Z,3.10
2022-08-14T10:11:23.845Z,3.40
2022-08-14T10:13:55.998Z,2.90
2022-08-14T10:16:33.277Z,3.35
2022-08-14T10:19:05.651Z,3.10
2022-08-14T10:21:38.764Z,3.58
2022-08-14T10:24:36.774Z,3.30
2022-08-14T10:27:17.238Z,3.70
2022-08-14T10:29:50.184Z,3.42
2022-08-14T10:32:28.848Z,3.33
2022-08-14T10:35:13.340Z,3.28
2022-08-14T10:37:48.757Z,3.50
2022-08-14T10:40:37.554Z,3.60
2022-08-14T10:43:22.624Z,3.55
2022-08-14T10:46:03.926Z,4.05
2022-08-14T10:48:58.446Z,3.10
2022-08-14T10:51:30.088Z,3.85
2022-08-14T10:54:26.106Z,3.70
2022-08-14T10:56:59.744Z,3.80
2022-08-14T10:59:30.935Z,3.00
2022-08-14T11:02:04.378Z,3.28
2022-08-14T11:04:36.088Z,3.50
2022-08-14T11:07:19.281Z,3.38
2022-08-14T11:09:56.013Z,3.55
2022-08-14T11:12:34.133Z,3.17
2022-08-14T11:15:06.411Z,3.45
2022-08-14T11:17:37.520Z,3.42
2022-08-14T11:20:14.150Z,3.03
2022-08-14T11:22:56.458Z,3.25
2022-08-14T11:25:43.350Z,3.38
2022-08-14T11:28:19.185Z,3.10
2022-08-14T11:30:53.484Z,3.05
2022-08-14T11:33:24.760Z,2.97
2022-08-14T11:35:59.446Z,3.30
2022-08-14T11:38:29.628Z,3.17
2022-08-14T11:41:00.376Z,3.22
2022-08-14T11:43:30.568Z,3.50
2022-08-14T11:46:03.540Z,3.30
2022-08-14T11:49:02.201Z,3.13
2022-08-14T11:51:53.593Z,3.53
2022-08-14T11:54:34.294Z,3.15
2022-08-14T11:57:05.660Z,3.72
2022-08-14T11:59:34.336Z,3.33
2022-08-14T12:03:00.730Z,2.97
2022-08-14T12:05:09.318Z,3.20
2022-08-14T12:07:50.700Z,3.55
2022-08-14T12:10:26.831Z,3.17
2022-08-14T12:13:17.506Z,3.45
2022-08-14T12:15:51.544Z,3.55
2022-08-14T12:18:32.401Z,4.20
2022-08-14T12:21:15.724Z,4.18
2022-08-14T12:24:01.890Z,3.58
2022-08-14T12:26:39.651Z,3.90
2022-08-14T12:29:13.208Z,3.58
2022-08-14T12:31:44.852Z,3.78
2022-08-14T12:34:20.067Z,4.28
2022-08-14T12:36:50.221Z,3.95
2022-08-14T12:39:22.965Z,3.92
2022-08-14T12:41:57.477Z,3.50
2022-08-14T12:44:34.943Z,3.70
2022-08-14T12:47:06.277Z,3.50
2022-08-14T12:49:35.591Z,3.50
2022-08-14T12:52:11.875Z,3.72
2022-08-14T12:54:57.513Z,3.60
2022-08-14T12:57:38.124Z,4.00
2022-08-14T13:00:22.729Z,3.80
2022-08-14T13:02:55.553Z,3.63
2022-08-14T13:05:27.756Z,4.00
2022-08-14T13:07:57.324Z,4.03
2022-08-14T13:10:46.571Z,4.07
2022-08-14T13:13:18.122Z,3.55
2022-08-14T13:15:56.187Z,4.30
2022-08-14T13:18:27.785Z,3.53
2022-08-14T13:21:02.306Z,3.80
2022-08-14T13:23:36.048Z,3.20
2022-08-14T13:26:08.421Z,3.95
2022-08-14T13:29:01.498Z,3.60
2022-08-14T13:31:34.566Z,4.03
2022-08-14T13:34:04.508Z,3.63
2022-08-14T13:36:54.940Z,3.50
2022-08-14T13:39:24.748Z,3.45
2022-08-14T13:41:55.626Z,4.03
2022-08-14T13:44:28.917Z,3.40
2022-08-14T13:46:58.570Z,3.35
2022-08-14T13:49:29.217Z,3.75
2022-08-14T13:51:59.799Z,3.92
2022-08-14T13:54:32.747Z,3.80
2022-08-14T13:57:03.764Z,3.50
2022-08-14T13:59:37.882Z,3.72
2022-08-14T14:02:09.113Z,3.58
2022-08-14T14:04:40.949Z,3.50
2022-08-14T14:07:13.553Z,3.22
2022-08-14T14:09:52.652Z,3.40
2022-08-14T14:12:37.637Z,3.53
2022-08-14T14:15:14.115Z,3.72
2022-08-14T14:17:48.200Z,3.47
2022-08-14T14:20:35.702Z,3.20
2022-08-14T14:23:10.506Z,3.22
2022-08-14T14:25:47.967Z,3.28
2022-08-14T14:28:24.531Z,3.33
2022-08-14T14:30:57.219Z,3.47
2022-08-14T14:33:49.579Z,3.10
2022-08-14T14:36:26.555Z,3.28
2022-08-14T14:38:57.489Z,3.05
2022-08-14T14:41:37.928Z,3.40
2022-08-14T14:44:15.634Z,3.05
2022-08-14T14:46:53.258Z,3.20
2022-08-14T14:49:31.864Z,3.25
2022-08-14T14:52:17.263Z,3.25
2022-08-14T14:54:52.501Z,3.05
2022-08-14T14:57:21.608Z,3.13
2022-08-14T14:59:51.743Z,3.20
2022-08-14T15:02:32.165Z,3.03
2022-08-14T15:05:02.841Z,3.15
2022-08-14T15:07:32.027Z,2.90
2022-08-14T15:10:02.259Z,3.00
2022-08-14T15:12:55.218Z,3.00
2022-08-14T15:15:24.482Z,3.05
2022-08-14T15:17:54.825Z,3.58
2022-08-14T15:20:30.336Z,3.28
2022-08-14T15:23:12.345Z,2.92
2022-08-14T15:25:42.151Z,2.92
2022-08-14T15:28:13.174Z,2.80
2022-08-14T15:30:58.913Z,3.00
2022-08-14T15:34:13.312Z,2.83
2022-08-14T15:36:31.761Z,2.70
2022-08-14T15:39:00.418Z,2.65
2022-08-14T15:41:41.197Z,2.97
2022-08-14T15:44:18.961Z,3.00
2022-08-14T15:46:58.288Z,3.00
2022-08-14T15:49:34.635Z,3.50
2022-08-14T15:52:05.215Z,3.15
2022-08-14T15:54:35.031Z,3.83
2022-08-14T15:57:08.489Z,3.78
2022-08-14T15:59:55.409Z,3.22
2022-08-14T16:02:28.174Z,3.63
2022-08-14T16:04:56.998Z,3.58
2022-08-14T16:07:27.278Z,3.58
2022-08-14T16:10:27.344Z,3.42
2022-08-14T16:12:47.627Z,3.70
2022-08-14T16:15:17.908Z,3.90
2022-08-14T16:17:49.935Z,3.40
2022-08-14T16:20:42.079Z,3.28
2022-08-14T16:23:11.585Z,4.15
2022-08-14T16:25:43.555Z,3.45
2022-08-14T16:28:27.046Z,3.70
2022-08-14T16:30:56.299Z,3.65
2022-08-14T16:33:56.604Z,3.85
2022-08-14T16:36:30.172Z,3.42
2022-08-14T16:39:01.857Z,3.85
2022-08-14T16:41:31.211Z,3.67
2022-08-14T16:44:02.704Z,3.88
2022-08-14T16:46:38.360Z,3.83
2022-08-14T16:49:16.110Z,4.07
2022-08-14T16:51:52.687Z,3.78
2022-08-14T16:54:35.052Z,4.10
2022-08-14T16:57:22.863Z,4.07
2022-08-14T16:59:57.816Z,3.97
2022-08-14T17:02:39.676Z,4.28
2022-08-14T17:05:21.550Z,4.60
2022-08-14T17:08:28.585Z,4.35
2022-08-14T17:11:10.836Z,4.50
2022-08-14T17:13:58.007Z,5.00
2022-08-14T17:16:35.606Z,4.60
2022-08-14T17:19:05.655Z,4.57
2022-08-14T17:21:40.995Z,4.90
2022-08-14T17:24:56.885Z,4.78
2022-08-14T17:27:04.279Z,4.20
2022-08-14T17:29:44.987Z,4.57
2022-08-14T17:32:30.067Z,4.35
2022-08-14T17:35:16.369Z,4.70
2022-08-14T17:37:55.572Z,4.97
2022-08-14T17:40:31.356Z,5.30
2022-08-14T17:43:02.544Z,4.75
2022-08-14T17:45:47.010Z,5.00
2022-08-14T17:49:10.016Z,5.13
2022-08-14T17:51:23.392Z,5.28
2022-08-14T17:54:02.617Z,4.80
2022-08-14T17:56:34.437Z,5.60
2022-08-14T17:59:07.548Z,5.28
2022-08-14T18:01:45.911Z,4.70
2022-08-14T18:04:27.776Z,5.40
2022-08-14T18:07:16.469Z,5.05
2022-08-14T18:09:56.723Z,5.40
2022-08-14T18:12:37.128Z,5.47
2022-08-14T18:15:15.950Z,5.63
2022-08-14T18:17:53.374Z,4.93
2022-08-14T18:21:41.869Z,4.80
2022-08-14T18:23:15.404Z,5.00
2022-08-14T18:25:53.278Z,5.20
2022-08-14T18:28:51.601Z,5.20
2022-08-14T18:31:43.612Z,5.25
2022-08-14T18:34:32.260Z,5.18
2022-08-14T18:37:17.991Z,5.53
2022-08-14T18:40:01.939Z,5.30
2022-08-14T18:42:52.943Z,5.28
2022-08-14T18:45:28.907Z,5.43
2022-08-14T18:48:50.599Z,5.43
2022-08-14T18:51:46.171Z,5.40
2022-08-14T18:54:33.123Z,5.57
2022-08-14T18:57:04.116Z,5.35
2022-08-14T18:59:42.329Z,5.78
2022-08-14T19:02:43.403Z,5.25
2022-08-14T19:05:14.306Z,5.55
2022-08-14T19:07:48.082Z,5.18
2022-08-14T19:10:32.004Z,5.20
2022-08-14T19:13:12.990Z,4.95
2022-08-14T19:15:45.691Z,4.82
2022-08-14T19:18:28.219Z,5.43
2022-08-14T19:21:00.536Z,5.45
2022-08-14T19:23:42.256Z,5.60
2022-08-14T19:26:36.075Z,5.30
2022-08-14T19:29:39.873Z,6.15
2022-08-14T19:32:36.471Z,5.80
2022-08-14T19:35:16.579Z,5.47
2022-08-14T19:37:52.748Z,5.32
2022-08-14T19:40:33.386Z,5.85
2022-08-14T19:43:06.614Z,5.80
2022-08-14T19:45:39.115Z,5.50
2022-08-14T19:48:15.751Z,5.75
2022-08-14T19:50:47.004Z,5.60
2022-08-14T19:53:18.304Z,6.22
2022-08-14T19:55:59.888Z,5.80
2022-08-14T19:58:54.925Z,5.55
2022-08-14T20:01:37.642Z,5.50
2022-08-14T20:04:45.422Z,6.47
2022-08-14T20:07:01.885Z,5.78
2022-08-14T20:11:05.840Z,6.03
2022-08-14T20:12:36.722Z,6.18
2022-08-14T20:15:21.412Z,6.47
2022-08-14T20:17:52.692Z,6.03
2022-08-14T20:20:31.526Z,6.50
2022-08-14T20:23:11.498Z,6.18
2022-08-14T20:25:45.275Z,6.65
2022-08-14T20:28:35.388Z,6.43
2022-08-14T20:31:17.665Z,5.80
2022-08-14T20:34:06.940Z,6.15
2022-08-14T20:36:40.924Z,6.72
2022-08-14T20:39:15.242Z,6.97
2022-08-14T20:41:51.078Z,6.75
2022-08-14T20:44:55.438Z,6.63
2022-08-14T20:47:25.892Z,6.97
2022-08-14T20:50:18.671Z,7.22
2022-08-14T20:52:53.071Z,6.88
2022-08-14T20:55:29.376Z,6.70
2022-08-14T20:58:02.740Z,6.72
2022-08-14T21:00:51.669Z,7.43
2022-08-14T21:03:31.990Z,7.13
2022-08-14T21:06:17.220Z,6.93
2022-08-14T21:08:51.743Z,6.63
2022-08-14T21:11:23.362Z,6.43
2022-08-14T21:14:24.994Z,6.63
2022-08-14T21:16:58.491Z,6.32
2022-08-14T21:19:30.197Z,7.93
2022-08-14T21:22:02.379Z,7.35
2022-08-14T21:24:39.957Z,8.07
2022-08-14T21:27:21.670Z,7.10
2022-08-14T21:29:55.592Z,6.90
2022-08-14T21:32:50.012Z,6.55
2022-08-14T21:35:22.930Z,6.65
2022-08-14T21:37:52.762Z,7.25
2022-08-14T21:40:41.892Z,7.15
2022-08-14T21:43:18.469Z,7.03
2022-08-14T21:45:53.154Z,6.85
2022-08-14T21:48:25.313Z,6.72
2022-08-14T21:51:52.905Z,6.63
2022-08-14T21:53:58.895Z,8.00
2022-08-14T21:56:37.597Z,6.78
2022-08-14T21:59:09.781Z,7.30
2022-08-14T22:01:59.639Z,7.72
2022-08-14T22:04:33.781Z,8.10
2022-08-14T22:07:07.522Z,7.55
2022-08-14T22:09:37.181Z,7.65
2022-08-14T22:12:08.726Z,7.03
2022-08-14T22:14:43.204Z,7.22
2022-08-14T22:17:16.498Z,6.88
2022-08-14T22:19:55.048Z,7.40
2022-08-14T22:22:27.736Z,7.22
2022-08-14T22:24:59.675Z,7.40
2022-08-14T22:27:29.520Z,7.47
2022-08-14T22:30:00.550Z,7.55
2022-08-14T22:32:56.078Z,7.18
2022-08-14T22:35:19.335Z,7.43
2022-08-14T22:38:34.958Z,7.13
2022-08-14T22:41:01.916Z,6.85
2022-08-14T22:43:37.962Z,6.82
2022-08-14T22:46:15.065Z,7.47
2022-08-14T22:48:51.004Z,7.20
2022-08-14T22:51:23.389Z,6.95
2022-08-14T22:53:55.483Z,7.13
2022-08-14T22:56:29.213Z,7.05
2022-08-14T22:59:01.260Z,7.00
2022-08-14T23:01:55.046Z,8.25
2022-08-14T23:04:35.692Z,7.72
2022-08-14T23:07:22.009Z,7.38
2022-08-14T23:10:31.161Z,7.95
2022-08-14T23:12:48.974Z,7.53
2022-08-14T23:15:29.853Z,7.50
2022-08-14T23:17:59.107Z,7.70
2022-08-14T23:20:29.685Z,7.40
2022-08-14T23:22:58.523Z,7.40
2022-08-14T23:25:44.668Z,7.63
2022-08-14T23:28:33.519Z,8.10
2022-08-14T23:31:15.039Z,8.05
2022-08-14T23:34:06.677Z,8.32
2022-08-14T23:36:52.705Z,8.60
2022-08-14T23:39:29.915Z,9.00
2022-08-14T23:42:04.586Z,9.35
2022-08-14T23:44:37.285Z,9.23
2022-08-14T23:47:11.867Z,8.45
2022-08-14T23:50:00.900Z,8.63
2022-08-14T23:53:06.331Z,9.05
2022-08-14T23:55:29.318Z,7.47
2022-08-14T23:58:00.547Z,8.68
